sensor_id;sensor_type;location;lat;lon;timestamp;pressure;altitude;pressure_sealevel;temperature;humidity
69980;BME280;57318;56.232;43.944;2023-05-01T00:01:25;97949.59;;;8.05;86.74
69980;BME280;57318;56.232;43.944;2023-05-01T00:03:50;97947.66;;;8.07;86.79
69980;BME280;57318;56.232;43.944;2023-05-01T00:06:16;97952.97;;;8.07;86.83
69980;BME280;57318;56.232;43.944;2023-05-01T00:08:42;97949.59;;;8.05;86.99
69980;BME280;57318;56.232;43.944;2023-05-01T00:11:08;97953.25;;;8.04;87.05
69980;BME280;57318;56.232;43.944;2023-05-01T00:13:36;97937.50;;;8.02;87.44
69980;BME280;57318;56.232;43.944;2023-05-01T00:16:09;97941.97;;;8.02;87.63
69980;BME280;57318;56.232;43.944;2023-05-01T00:18:35;97946.41;;;8.01;87.46
69980;BME280;57318;56.232;43.944;2023-05-01T00:21:01;97944.63;;;8.02;87.80
69980;BME280;57318;56.232;43.944;2023-05-01T00:23:27;97955.34;;;8.00;87.89
69980;BME280;57318;56.232;43.944;2023-05-01T00:25:53;97949.06;;;8.01;87.88
69980;BME280;57318;56.232;43.944;2023-05-01T00:28:19;97956.31;;;7.99;88.15
69980;BME280;57318;56.232;43.944;2023-05-01T00:30:44;97954.50;;;8.00;88.36
69980;BME280;57318;56.232;43.944;2023-05-01T00:33:12;97947.56;;;7.99;88.29
69980;BME280;57318;56.232;43.944;2023-05-01T00:35:37;97950.50;;;7.95;88.79
69980;BME280;57318;56.232;43.944;2023-05-01T00:38:03;97950.50;;;7.95;88.75
69980;BME280;57318;56.232;43.944;2023-05-01T00:40:30;97959.38;;;7.94;89.05
69980;BME280;57318;56.232;43.944;2023-05-01T00:42:55;97955.91;;;7.94;89.45
69980;BME280;57318;56.232;43.944;2023-05-01T00:45:21;97954.25;;;7.93;89.61
69980;BME280;57318;56.232;43.944;2023-05-01T00:47:47;97952.41;;;7.93;89.59
69980;BME280;57318;56.232;43.944;2023-05-01T00:50:13;97956.75;;;7.94;90.05
69980;BME280;57318;56.232;43.944;2023-05-01T00:52:39;97941.56;;;7.97;90.28
69980;BME280;57318;56.232;43.944;2023-05-01T00:55:05;97953.00;;;7.97;90.12
69980;BME280;57318;56.232;43.944;2023-05-01T00:57:31;97957.16;;;8.00;90.23
69980;BME280;57318;56.232;43.944;2023-05-01T00:59:57;97966.06;;;7.99;90.38
69980;BME280;57318;56.232;43.944;2023-05-01T01:02:23;97965.22;;;7.98;90.88
69980;BME280;57318;56.232;43.944;2023-05-01T01:04:49;97953.66;;;7.99;90.87
69980;BME280;57318;56.232;43.944;2023-05-01T01:07:22;97948.25;;;8.01;91.05
69980;BME280;57318;56.232;43.944;2023-05-01T01:13:01;97946.94;;;8.05;91.37
69980;BME280;57318;56.232;43.944;2023-05-01T01:15:42;97945.69;;;8.09;91.22
69980;BME280;57318;56.232;43.944;2023-05-01T01:31:37;97939.16;;;8.41;91.83
69980;BME280;57318;56.232;43.944;2023-05-01T01:34:12;97938.31;;;8.50;91.75
69980;BME280;57318;56.232;43.944;2023-05-01T01:36:44;97944.56;;;8.59;91.61
69980;BME280;57318;56.232;43.944;2023-05-01T01:41:57;97951.28;;;8.81;91.44
69980;BME280;57318;56.232;43.944;2023-05-01T01:44:32;97958.72;;;8.95;91.20
69980;BME280;57318;56.232;43.944;2023-05-01T01:47:01;97946.94;;;9.08;90.77
69980;BME280;57318;56.232;43.944;2023-05-01T01:49:30;97960.63;;;9.21;90.44
69980;BME280;57318;56.232;43.944;2023-05-01T01:51:58;97943.81;;;9.30;89.51
69980;BME280;57318;56.232;43.944;2023-05-01T01:54:34;97963.44;;;9.37;89.10
69980;BME280;57318;56.232;43.944;2023-05-01T01:57:02;97954.91;;;9.44;88.53
69980;BME280;57318;56.232;43.944;2023-05-01T01:59:32;97956.22;;;9.48;88.36
69980;BME280;57318;56.232;43.944;2023-05-01T02:01:59;97953.28;;;9.51;88.12
69980;BME280;57318;56.232;43.944;2023-05-01T02:04:27;97962.59;;;9.55;88.01
69980;BME280;57318;56.232;43.944;2023-05-01T02:06:55;97956.19;;;9.57;87.75
69980;BME280;57318;56.232;43.944;2023-05-01T02:09:23;97969.94;;;9.61;87.67
69980;BME280;57318;56.232;43.944;2023-05-01T02:11:50;97966.31;;;9.62;87.45
69980;BME280;57318;56.232;43.944;2023-05-01T02:14:19;97968.66;;;9.65;87.63
69980;BME280;57318;56.232;43.944;2023-05-01T02:16:46;97971.03;;;9.68;87.56
69980;BME280;57318;56.232;43.944;2023-05-01T02:19:14;97969.56;;;9.74;87.32
69980;BME280;57318;56.232;43.944;2023-05-01T02:21:41;97974.56;;;9.77;87.75
69980;BME280;57318;56.232;43.944;2023-05-01T02:24:07;97967.09;;;9.81;87.43
69980;BME280;57318;56.232;43.944;2023-05-01T02:26:46;97983.72;;;9.83;87.42
69980;BME280;57318;56.232;43.944;2023-05-01T02:29:14;97989.41;;;9.88;87.39
69980;BME280;57318;56.232;43.944;2023-05-01T02:31:39;97991.28;;;9.96;87.25
69980;BME280;57318;56.232;43.944;2023-05-01T02:34:05;97986.19;;;10.02;86.95
69980;BME280;57318;56.232;43.944;2023-05-01T02:36:31;97988.06;;;10.10;86.74
69980;BME280;57318;56.232;43.944;2023-05-01T02:38:58;98003.53;;;10.15;86.41
69980;BME280;57318;56.232;43.944;2023-05-01T02:41:25;98008.22;;;10.21;86.11
69980;BME280;57318;56.232;43.944;2023-05-01T02:43:57;98006.44;;;10.29;85.92
69980;BME280;57318;56.232;43.944;2023-05-01T02:46:25;98012.31;;;10.33;85.76
69980;BME280;57318;56.232;43.944;2023-05-01T02:48:53;98017.31;;;10.36;85.68
69980;BME280;57318;56.232;43.944;2023-05-01T02:51:21;98012.00;;;10.36;85.58
69980;BME280;57318;56.232;43.944;2023-05-01T02:53:48;98005.53;;;10.39;85.47
69980;BME280;57318;56.232;43.944;2023-05-01T02:56:14;98013.16;;;10.42;85.39
69980;BME280;57318;56.232;43.944;2023-05-01T02:58:41;98027.81;;;10.46;85.38
69980;BME280;57318;56.232;43.944;2023-05-01T03:01:06;98029.19;;;10.50;85.02
69980;BME280;57318;56.232;43.944;2023-05-01T03:03:32;98024.53;;;10.52;84.94
69980;BME280;57318;56.232;43.944;2023-05-01T03:05:58;98026.25;;;10.61;84.73
69980;BME280;57318;56.232;43.944;2023-05-01T03:08:24;98022.56;;;10.62;84.60
69980;BME280;57318;56.232;43.944;2023-05-01T03:10:50;98029.06;;;10.60;84.65
69980;BME280;57318;56.232;43.944;2023-05-01T03:13:15;98032.38;;;10.62;84.73
69980;BME280;57318;56.232;43.944;2023-05-01T03:15:43;98025.41;;;10.61;84.69
69980;BME280;57318;56.232;43.944;2023-05-01T03:18:08;98035.19;;;10.60;84.69
69980;BME280;57318;56.232;43.944;2023-05-01T03:20:34;98040.19;;;10.63;84.52
69980;BME280;57318;56.232;43.944;2023-05-01T03:23:00;98036.56;;;10.64;84.77
69980;BME280;57318;56.232;43.944;2023-05-01T03:25:26;98030.06;;;10.67;84.58
69980;BME280;57318;56.232;43.944;2023-05-01T03:27:51;98040.38;;;10.70;84.62
69980;BME280;57318;56.232;43.944;2023-05-01T03:30:17;98045.19;;;10.67;84.69
69980;BME280;57318;56.232;43.944;2023-05-01T03:32:43;98043.19;;;10.69;84.99
69980;BME280;57318;56.232;43.944;2023-05-01T03:35:09;98050.50;;;10.67;84.76
69980;BME280;57318;56.232;43.944;2023-05-01T03:37:35;98064.25;;;10.62;85.05
69980;BME280;57318;56.232;43.944;2023-05-01T03:40:01;98063.13;;;10.64;85.35
69980;BME280;57318;56.232;43.944;2023-05-01T03:42:30;98059.13;;;10.69;85.23
69980;BME280;57318;56.232;43.944;2023-05-01T03:44:56;98063.94;;;10.65;85.39
69980;BME280;57318;56.232;43.944;2023-05-01T03:47:21;98062.81;;;10.68;85.56
69980;BME280;57318;56.232;43.944;2023-05-01T03:49:47;98076.75;;;10.70;85.23
69980;BME280;57318;56.232;43.944;2023-05-01T03:52:13;98083.06;;;10.69;85.40
69980;BME280;57318;56.232;43.944;2023-05-01T03:54:39;98079.41;;;10.70;85.35
69980;BME280;57318;56.232;43.944;2023-05-01T03:57:05;98084.88;;;10.68;85.20
69980;BME280;57318;56.232;43.944;2023-05-01T03:59:30;98089.38;;;10.68;85.22
69980;BME280;57318;56.232;43.944;2023-05-01T04:01:56;98082.91;;;10.70;85.21
69980;BME280;57318;56.232;43.944;2023-05-01T04:04:22;98085.88;;;10.67;84.93
69980;BME280;57318;56.232;43.944;2023-05-01T04:06:47;98067.81;;;10.71;85.33
69980;BME280;57318;56.232;43.944;2023-05-01T04:09:14;98062.19;;;10.74;85.14
69980;BME280;57318;56.232;43.944;2023-05-01T04:11:40;98073.94;;;10.71;84.94
69980;BME280;57318;56.232;43.944;2023-05-01T04:14:06;98065.63;;;10.66;84.99
69980;BME280;57318;56.232;43.944;2023-05-01T04:16:32;98066.59;;;10.65;85.20
69980;BME280;57318;56.232;43.944;2023-05-01T04:18:57;98073.19;;;10.61;84.86
69980;BME280;57318;56.232;43.944;2023-05-01T04:21:23;98076.88;;;10.60;84.79
69980;BME280;57318;56.232;43.944;2023-05-01T04:23:49;98078.81;;;10.58;84.96
69980;BME280;57318;56.232;43.944;2023-05-01T04:26:15;98094.16;;;10.64;84.95
69980;BME280;57318;56.232;43.944;2023-05-01T04:28:41;98103.16;;;10.71;84.63
69980;BME280;57318;56.232;43.944;2023-05-01T04:31:07;98118.59;;;10.68;84.21
69980;BME280;57318;56.232;43.944;2023-05-01T04:33:32;98128.31;;;10.59;84.42
69980;BME280;57318;56.232;43.944;2023-05-01T04:35:58;98136.44;;;10.57;84.24
69980;BME280;57318;56.232;43.944;2023-05-01T04:38:24;98140.41;;;10.53;84.26
69980;BME280;57318;56.232;43.944;2023-05-01T04:40:50;98131.22;;;10.47;83.86
69980;BME280;57318;56.232;43.944;2023-05-01T04:43:16;98113.63;;;10.46;83.91
69980;BME280;57318;56.232;43.944;2023-05-01T04:45:42;98109.00;;;10.49;83.31
69980;BME280;57318;56.232;43.944;2023-05-01T04:48:08;98121.81;;;10.53;82.88
69980;BME280;57318;56.232;43.944;2023-05-01T04:50:33;98131.91;;;10.50;82.52
69980;BME280;57318;56.232;43.944;2023-05-01T04:52:59;98124.28;;;10.55;82.38
69980;BME280;57318;56.232;43.944;2023-05-01T04:55:25;98114.38;;;10.57;81.83
69980;BME280;57318;56.232;43.944;2023-05-01T04:57:50;98114.47;;;10.73;81.63
69980;BME280;57318;56.232;43.944;2023-05-01T05:00:16;98119.50;;;10.84;80.64
69980;BME280;57318;56.232;43.944;2023-05-01T05:02:45;98127.88;;;10.90;80.22
69980;BME280;57318;56.232;43.944;2023-05-01T05:05:10;98149.28;;;10.88;79.92
69980;BME280;57318;56.232;43.944;2023-05-01T05:07:37;98153.75;;;10.88;79.54
69980;BME280;57318;56.232;43.944;2023-05-01T05:10:03;98141.81;;;10.92;79.39
69980;BME280;57318;56.232;43.944;2023-05-01T05:12:29;98123.78;;;11.04;79.29
69980;BME280;57318;56.232;43.944;2023-05-01T05:14:55;98118.03;;;11.16;78.28
69980;BME280;57318;56.232;43.944;2023-05-01T05:17:21;98119.38;;;11.20;78.27
69980;BME280;57318;56.232;43.944;2023-05-01T05:19:47;98110.09;;;11.33;77.78
69980;BME280;57318;56.232;43.944;2023-05-01T05:22:12;98107.16;;;11.44;77.27
69980;BME280;57318;56.232;43.944;2023-05-01T05:24:38;98103.69;;;11.52;77.10
69980;BME280;57318;56.232;43.944;2023-05-01T05:27:04;98110.84;;;11.51;76.49
69980;BME280;57318;56.232;43.944;2023-05-01T05:29:31;98117.78;;;11.36;77.11
69980;BME280;57318;56.232;43.944;2023-05-01T05:31:57;98117.09;;;11.34;77.55
69980;BME280;57318;56.232;43.944;2023-05-01T05:34:24;98128.06;;;11.31;77.64
69980;BME280;57318;56.232;43.944;2023-05-01T05:36:50;98145.16;;;11.28;77.81
69980;BME280;57318;56.232;43.944;2023-05-01T05:39:16;98140.28;;;11.15;78.44
69980;BME280;57318;56.232;43.944;2023-05-01T05:41:42;98145.22;;;11.02;78.83
69980;BME280;57318;56.232;43.944;2023-05-01T05:44:07;98148.81;;;10.93;79.34
69980;BME280;57318;56.232;43.944;2023-05-01T05:46:33;98155.72;;;10.86;79.94
69980;BME280;57318;56.232;43.944;2023-05-01T05:48:59;98150.09;;;10.89;80.12
69980;BME280;57318;56.232;43.944;2023-05-01T05:51:25;98142.94;;;11.15;79.47
69980;BME280;57318;56.232;43.944;2023-05-01T05:53:51;98147.53;;;11.40;78.24
69980;BME280;57318;56.232;43.944;2023-05-01T05:56:16;98156.16;;;11.76;76.92
69980;BME280;57318;56.232;43.944;2023-05-01T05:58:42;98152.63;;;12.18;75.63
69980;BME280;57318;56.232;43.944;2023-05-01T06:01:08;98150.63;;;12.53;73.82
69980;BME280;57318;56.232;43.944;2023-05-01T06:03:34;98143.63;;;12.77;72.86
69980;BME280;57318;56.232;43.944;2023-05-01T06:06:01;98152.41;;;12.94;72.00
69980;BME280;57318;56.232;43.944;2023-05-01T06:08:27;98167.28;;;12.72;71.70
69980;BME280;57318;56.232;43.944;2023-05-01T06:10:53;98168.28;;;12.38;72.81
69980;BME280;57318;56.232;43.944;2023-05-01T06:13:19;98170.72;;;12.06;74.00
69980;BME280;57318;56.232;43.944;2023-05-01T06:15:44;98174.53;;;12.04;74.53
69980;BME280;57318;56.232;43.944;2023-05-01T06:18:10;98178.97;;;11.87;74.95
69980;BME280;57318;56.232;43.944;2023-05-01T06:20:36;98195.88;;;11.69;75.47
69980;BME280;57318;56.232;43.944;2023-05-01T06:23:03;98200.00;;;11.55;76.41
69980;BME280;57318;56.232;43.944;2023-05-01T06:25:28;98205.94;;;11.49;76.83
69980;BME280;57318;56.232;43.944;2023-05-01T06:27:54;98193.47;;;11.50;76.90
69980;BME280;57318;56.232;43.944;2023-05-01T06:30:20;98156.78;;;11.62;76.56
69980;BME280;57318;56.232;43.944;2023-05-01T06:32:46;98118.41;;;11.81;76.21
69980;BME280;57318;56.232;43.944;2023-05-01T06:35:12;98097.69;;;12.17;75.48
69980;BME280;57318;56.232;43.944;2023-05-01T06:37:38;98081.16;;;12.63;74.30
69980;BME280;57318;56.232;43.944;2023-05-01T06:40:08;98080.66;;;13.24;71.98
69980;BME280;57318;56.232;43.944;2023-05-01T06:42:35;98082.13;;;13.66;70.06
69980;BME280;57318;56.232;43.944;2023-05-01T06:45:01;98152.28;;;13.83;68.57
69980;BME280;57318;56.232;43.944;2023-05-01T06:47:32;98178.03;;;13.76;68.08
69980;BME280;57318;56.232;43.944;2023-05-01T06:49:57;98160.06;;;13.61;68.12
69980;BME280;57318;56.232;43.944;2023-05-01T06:52:24;98182.47;;;13.52;68.33
69980;BME280;57318;56.232;43.944;2023-05-01T06:54:49;98181.81;;;13.42;69.19
69980;BME280;57318;56.232;43.944;2023-05-01T06:57:15;98181.34;;;13.38;69.18
69980;BME280;57318;56.232;43.944;2023-05-01T06:59:41;98185.88;;;13.13;69.83
69980;BME280;57318;56.232;43.944;2023-05-01T07:02:07;98201.25;;;12.94;70.59
69980;BME280;57318;56.232;43.944;2023-05-01T07:04:32;98203.72;;;12.79;70.89
69980;BME280;57318;56.232;43.944;2023-05-01T07:06:58;98213.59;;;12.62;71.51
69980;BME280;57318;56.232;43.944;2023-05-01T07:09:25;98224.38;;;12.28;72.56
69980;BME280;57318;56.232;43.944;2023-05-01T07:11:51;98218.50;;;12.08;73.74
69980;BME280;57318;56.232;43.944;2023-05-01T07:14:16;98207.63;;;11.93;74.43
69980;BME280;57318;56.232;43.944;2023-05-01T07:16:42;98229.44;;;11.97;74.85
69980;BME280;57318;56.232;43.944;2023-05-01T07:19:08;98226.78;;;11.97;74.67
69980;BME280;57318;56.232;43.944;2023-05-01T07:21:33;98226.81;;;12.05;74.50
69980;BME280;57318;56.232;43.944;2023-05-01T07:23:59;98237.78;;;12.10;73.69
69980;BME280;57318;56.232;43.944;2023-05-01T07:26:25;98239.94;;;12.06;73.48
69980;BME280;57318;56.232;43.944;2023-05-01T07:28:51;98232.63;;;12.08;73.42
69980;BME280;57318;56.232;43.944;2023-05-01T07:31:17;98234.31;;;12.18;72.82
69980;BME280;57318;56.232;43.944;2023-05-01T07:33:43;98244.31;;;12.16;72.70
69980;BME280;57318;56.232;43.944;2023-05-01T07:36:09;98246.63;;;12.11;72.51
69980;BME280;57318;56.232;43.944;2023-05-01T07:38:35;98256.81;;;12.15;72.77
69980;BME280;57318;56.232;43.944;2023-05-01T07:41:01;98269.75;;;12.10;72.82
69980;BME280;57318;56.232;43.944;2023-05-01T07:43:27;98273.03;;;12.04;73.00
69980;BME280;57318;56.232;43.944;2023-05-01T07:45:57;98289.50;;;11.99;73.46
69980;BME280;57318;56.232;43.944;2023-05-01T07:48:25;98287.78;;;11.90;73.69
69980;BME280;57318;56.232;43.944;2023-05-01T07:50:51;98284.09;;;11.83;74.41
69980;BME280;57318;56.232;43.944;2023-05-01T07:53:17;98295.88;;;11.80;74.43
69980;BME280;57318;56.232;43.944;2023-05-01T07:55:43;98312.47;;;11.74;74.76
69980;BME280;57318;56.232;43.944;2023-05-01T07:58:09;98316.81;;;11.75;75.07
69980;BME280;57318;56.232;43.944;2023-05-01T08:00:35;98315.91;;;11.66;75.46
69980;BME280;57318;56.232;43.944;2023-05-01T08:03:01;98318.94;;;11.63;75.61
69980;BME280;57318;56.232;43.944;2023-05-01T08:05:27;98335.66;;;11.55;75.75
69980;BME280;57318;56.232;43.944;2023-05-01T08:07:53;98352.56;;;11.46;75.82
69980;BME280;57318;56.232;43.944;2023-05-01T08:10:18;98372.41;;;11.34;75.68
69980;BME280;57318;56.232;43.944;2023-05-01T08:12:46;98379.88;;;11.12;76.36
69980;BME280;57318;56.232;43.944;2023-05-01T08:15:12;98385.56;;;10.99;76.80
69980;BME280;57318;56.232;43.944;2023-05-01T08:17:38;98394.28;;;10.92;77.37
69980;BME280;57318;56.232;43.944;2023-05-01T08:20:05;98403.16;;;10.82;77.51
69980;BME280;57318;56.232;43.944;2023-05-01T08:22:32;98375.91;;;10.80;77.71
69980;BME280;57318;56.232;43.944;2023-05-01T08:24:57;98346.09;;;10.87;77.90
69980;BME280;57318;56.232;43.944;2023-05-01T08:27:23;98344.78;;;10.91;77.85
69980;BME280;57318;56.232;43.944;2023-05-01T08:29:49;98337.09;;;10.88;77.92
69980;BME280;57318;56.232;43.944;2023-05-01T08:32:16;98333.31;;;10.90;78.14
69980;BME280;57318;56.232;43.944;2023-05-01T08:34:42;98319.78;;;11.01;78.03
69980;BME280;57318;56.232;43.944;2023-05-01T08:37:08;98313.66;;;11.01;77.95
69980;BME280;57318;56.232;43.944;2023-05-01T08:39:34;98312.56;;;10.94;78.16
69980;BME280;57318;56.232;43.944;2023-05-01T08:42:00;98324.88;;;10.95;78.73
69980;BME280;57318;56.232;43.944;2023-05-01T08:44:26;98335.88;;;11.00;78.38
69980;BME280;57318;56.232;43.944;2023-05-01T08:49:32;98335.81;;;10.92;78.10
69980;BME280;57318;56.232;43.944;2023-05-01T08:52:01;98333.16;;;10.92;78.19
69980;BME280;57318;56.232;43.944;2023-05-01T08:54:29;98322.09;;;10.96;78.27
69980;BME280;57318;56.232;43.944;2023-05-01T08:56:59;98325.81;;;11.04;77.78
69980;BME280;57318;56.232;43.944;2023-05-01T08:59:30;98328.91;;;11.17;77.15
69980;BME280;57318;56.232;43.944;2023-05-01T09:02:02;98335.91;;;11.44;76.53
69980;BME280;57318;56.232;43.944;2023-05-01T09:04:37;98323.41;;;11.63;75.89
69980;BME280;57318;56.232;43.944;2023-05-01T09:07:03;98332.81;;;11.83;75.07
69980;BME280;57318;56.232;43.944;2023-05-01T09:09:30;98335.47;;;11.83;74.39
69980;BME280;57318;56.232;43.944;2023-05-01T09:14:42;98338.44;;;11.98;73.39
69980;BME280;57318;56.232;43.944;2023-05-01T09:17:08;98335.66;;;12.08;72.92
69980;BME280;57318;56.232;43.944;2023-05-01T09:19:34;98332.03;;;12.17;72.06
69980;BME280;57318;56.232;43.944;2023-05-01T09:22:00;98311.47;;;12.52;71.05
69980;BME280;57318;56.232;43.944;2023-05-01T09:24:25;98304.69;;;12.74;70.65
69980;BME280;57318;56.232;43.944;2023-05-01T09:26:51;98298.22;;;13.43;68.44
69980;BME280;57318;56.232;43.944;2023-05-01T09:29:40;98287.63;;;15.23;63.26
69980;BME280;57318;56.232;43.944;2023-05-01T09:32:25;98279.03;;;17.90;54.70
69980;BME280;57318;56.232;43.944;2023-05-01T09:35:14;98260.28;;;19.92;48.32
69980;BME280;57318;56.232;43.944;2023-05-01T09:37:48;98262.63;;;21.54;42.58
69980;BME280;57318;56.232;43.944;2023-05-01T09:40:14;98267.88;;;23.02;40.22
69980;BME280;57318;56.232;43.944;2023-05-01T09:42:49;98271.84;;;23.77;36.98
69980;BME280;57318;56.232;43.944;2023-05-01T09:45:15;98263.56;;;24.60;36.10
69980;BME280;57318;56.232;43.944;2023-05-01T09:47:42;98263.38;;;23.74;35.38
69980;BME280;57318;56.232;43.944;2023-05-01T09:50:34;98265.09;;;22.79;37.65
69980;BME280;57318;56.232;43.944;2023-05-01T09:53:00;98272.88;;;21.89;39.04
69980;BME280;57318;56.232;43.944;2023-05-01T09:55:27;98279.91;;;20.58;41.46
69980;BME280;57318;56.232;43.944;2023-05-01T09:57:52;98276.53;;;19.38;44.35
69980;BME280;57318;56.232;43.944;2023-05-01T10:00:18;98276.63;;;18.63;46.50
69980;BME280;57318;56.232;43.944;2023-05-01T10:02:47;98285.75;;;18.14;47.86
69980;BME280;57318;56.232;43.944;2023-05-01T10:05:14;98271.81;;;18.45;47.92
69980;BME280;57318;56.232;43.944;2023-05-01T10:07:54;98258.41;;;17.97;48.82
69980;BME280;57318;56.232;43.944;2023-05-01T10:10:22;98266.41;;;17.55;49.74
69980;BME280;57318;56.232;43.944;2023-05-01T10:12:48;98275.28;;;17.27;50.16
69980;BME280;57318;56.232;43.944;2023-05-01T10:15:15;98270.47;;;16.94;51.21
69980;BME280;57318;56.232;43.944;2023-05-01T10:17:42;98265.84;;;17.10;50.74
69980;BME280;57318;56.232;43.944;2023-05-01T10:20:10;98265.44;;;18.04;49.15
69980;BME280;57318;56.232;43.944;2023-05-01T10:22:38;98271.41;;;17.93;48.90
69980;BME280;57318;56.232;43.944;2023-05-01T10:25:11;98298.88;;;17.60;49.41
69980;BME280;57318;56.232;43.944;2023-05-01T10:27:38;98381.25;;;16.88;50.36
69980;BME280;57318;56.232;43.944;2023-05-01T10:30:05;98354.41;;;15.92;52.96
69980;BME280;57318;56.232;43.944;2023-05-01T10:32:32;98303.19;;;15.42;54.92
69980;BME280;57318;56.232;43.944;2023-05-01T10:35:00;98289.38;;;15.15;56.24
69980;BME280;57318;56.232;43.944;2023-05-01T10:37:46;98297.41;;;14.92;57.32
69980;BME280;57318;56.232;43.944;2023-05-01T10:40:47;98336.25;;;14.49;58.53
69980;BME280;57318;56.232;43.944;2023-05-01T10:45:44;98562.63;;;13.23;63.02
69980;BME280;57318;56.232;43.944;2023-05-01T10:48:11;98554.28;;;12.49;67.41
69980;BME280;57318;56.232;43.944;2023-05-01T10:53:38;98368.56;;;11.54;73.72
69980;BME280;57318;56.232;43.944;2023-05-01T10:56:04;98338.34;;;11.55;73.25
69980;BME280;57318;56.232;43.944;2023-05-01T11:01:32;98253.75;;;11.67;75.14
69980;BME280;57318;56.232;43.944;2023-05-01T11:12:06;98360.34;;;11.66;76.37
69980;BME280;57318;56.232;43.944;2023-05-01T11:20:44;98356.31;;;11.35;77.81
69980;BME280;57318;56.232;43.944;2023-05-01T11:22:59;98365.25;;;11.34;78.27
69980;BME280;57318;56.232;43.944;2023-05-01T11:25:29;98343.06;;;11.44;78.40
69980;BME280;57318;56.232;43.944;2023-05-01T11:28:00;98334.91;;;11.63;79.12
69980;BME280;57318;56.232;43.944;2023-05-01T11:30:37;98388.19;;;11.80;78.88
69980;BME280;57318;56.232;43.944;2023-05-01T11:33:03;98417.09;;;11.93;77.79
69980;BME280;57318;56.232;43.944;2023-05-01T11:35:30;98425.06;;;11.93;76.40
69980;BME280;57318;56.232;43.944;2023-05-01T11:37:56;98422.09;;;11.96;76.50
69980;BME280;57318;56.232;43.944;2023-05-01T11:40:32;98429.41;;;11.94;75.93
69980;BME280;57318;56.232;43.944;2023-05-01T11:43:03;98432.38;;;11.90;76.03
69980;BME280;57318;56.232;43.944;2023-05-01T11:45:30;98438.81;;;11.88;75.68
69980;BME280;57318;56.232;43.944;2023-05-01T11:47:56;98437.69;;;11.90;76.47
69980;BME280;57318;56.232;43.944;2023-05-01T11:50:34;98447.13;;;12.03;75.98
69980;BME280;57318;56.232;43.944;2023-05-01T11:53:02;98439.69;;;12.15;75.58
69980;BME280;57318;56.232;43.944;2023-05-01T11:55:32;98447.41;;;12.26;75.04
69980;BME280;57318;56.232;43.944;2023-05-01T11:57:58;98443.63;;;12.37;74.91
69980;BME280;57318;56.232;43.944;2023-05-01T12:00:34;98444.00;;;12.42;73.92
69980;BME280;57318;56.232;43.944;2023-05-01T12:03:10;98448.31;;;12.43;73.59
69980;BME280;57318;56.232;43.944;2023-05-01T12:05:41;98444.00;;;12.42;73.49
69980;BME280;57318;56.232;43.944;2023-05-01T12:10:34;98432.97;;;12.37;73.21
69980;BME280;57318;56.232;43.944;2023-05-01T12:13:05;98435.94;;;12.25;73.94
69980;BME280;57318;56.232;43.944;2023-05-01T12:15:35;98436.16;;;12.06;73.68
69980;BME280;57318;56.232;43.944;2023-05-01T12:18:03;98437.63;;;11.82;74.92
69980;BME280;57318;56.232;43.944;2023-05-01T12:20:52;98440.47;;;11.63;76.15
69980;BME280;57318;56.232;43.944;2023-05-01T12:25:57;98454.25;;;11.40;76.53
69980;BME280;57318;56.232;43.944;2023-05-01T12:28:23;98453.69;;;11.36;77.19
69980;BME280;57318;56.232;43.944;2023-05-01T12:30:49;98448.31;;;11.28;78.10
69980;BME280;57318;56.232;43.944;2023-05-01T12:33:17;98441.94;;;11.21;77.63
69980;BME280;57318;56.232;43.944;2023-05-01T12:35:45;98439.13;;;11.23;78.01
69980;BME280;57318;56.232;43.944;2023-05-01T12:38:16;98443.06;;;11.18;78.23
69980;BME280;57318;56.232;43.944;2023-05-01T12:40:58;98443.44;;;11.06;77.96
69980;BME280;57318;56.232;43.944;2023-05-01T12:43:32;98435.25;;;10.99;78.26
69980;BME280;57318;56.232;43.944;2023-05-01T12:45:59;98428.94;;;11.00;77.96
69980;BME280;57318;56.232;43.944;2023-05-01T12:48:25;98436.31;;;11.06;78.09
69980;BME280;57318;56.232;43.944;2023-05-01T12:50:52;98424.38;;;11.10;77.59
69980;BME280;57318;56.232;43.944;2023-05-01T12:53:23;98428.09;;;11.17;77.58
69980;BME280;57318;56.232;43.944;2023-05-01T12:55:51;98433.88;;;11.13;76.25
69980;BME280;57318;56.232;43.944;2023-05-01T12:58:17;98426.69;;;11.05;76.47
69980;BME280;57318;56.232;43.944;2023-05-01T13:00:53;98442.06;;;10.83;76.42
69980;BME280;57318;56.232;43.944;2023-05-01T13:03:27;98440.06;;;10.68;77.08
69980;BME280;57318;56.232;43.944;2023-05-01T13:05:58;98443.03;;;10.55;78.14
69980;BME280;57318;56.232;43.944;2023-05-01T13:08:33;98440.44;;;10.45;78.35
69980;BME280;57318;56.232;43.944;2023-05-01T13:11:07;98447.28;;;10.47;78.77
69980;BME280;57318;56.232;43.944;2023-05-01T13:13:34;98449.13;;;10.37;78.61
69980;BME280;57318;56.232;43.944;2023-05-01T13:16:10;98443.81;;;10.27;79.13
69980;BME280;57318;56.232;43.944;2023-05-01T13:18:47;98443.13;;;10.25;79.22
69980;BME280;57318;56.232;43.944;2023-05-01T13:21:14;98452.22;;;10.23;79.45
69980;BME280;57318;56.232;43.944;2023-05-01T13:23:42;98449.16;;;10.18;79.60
69980;BME280;57318;56.232;43.944;2023-05-01T13:26:16;98447.47;;;10.17;79.77
69980;BME280;57318;56.232;43.944;2023-05-01T13:28:43;98460.06;;;10.15;79.76
69980;BME280;57318;56.232;43.944;2023-05-01T13:31:13;98475.28;;;10.22;79.84
69980;BME280;57318;56.232;43.944;2023-05-01T13:33:39;98461.97;;;10.32;78.91
69980;BME280;57318;56.232;43.944;2023-05-01T13:36:11;98454.56;;;10.36;78.84
69980;BME280;57318;56.232;43.944;2023-05-01T13:38:49;98473.28;;;10.44;79.14
69980;BME280;57318;56.232;43.944;2023-05-01T13:41:17;98469.78;;;10.43;79.43
69980;BME280;57318;56.232;43.944;2023-05-01T13:43:46;98481.13;;;10.45;79.87
69980;BME280;57318;56.232;43.944;2023-05-01T13:46:13;98485.84;;;10.52;79.71
69980;BME280;57318;56.232;43.944;2023-05-01T13:48:40;98487.66;;;10.51;79.20